createdAt,value
2022-09-06T00:01:24.517Z,17.70
2022-09-06T00:04:15.078Z,17.70
2022-09-06T00:07:01.097Z,17.60
2022-09-06T00:09:46.647Z,17.50
2022-09-06T00:12:32.643Z,17.50
2022-09-06T00:15:18.493Z,17.40
2022-09-06T00:18:06.188Z,17.30
2022-09-06T00:20:51.880Z,17.30
2022-09-06T00:23:37.627Z,17.40
2022-09-06T00:26:23.812Z,17.30
2022-09-06T00:29:09.455Z,17.30
2022-09-06T00:31:54.998Z,17.20
2022-09-06T00:34:40.698Z,17.10
2022-09-06T00:37:26.368Z,17.10
2022-09-06T00:40:12.091Z,17.10
2022-09-06T00:42:58.258Z,17.00
2022-09-06T00:45:43.609Z,17.00
2022-09-06T00:48:29.294Z,16.90
2022-09-06T00:51:16.820Z,16.90
2022-09-06T00:54:07.889Z,16.90
2022-09-06T00:56:55.276Z,16.90
2022-09-06T00:59:42.405Z,16.90
2022-09-06T01:02:27.850Z,16.90
2022-09-06T01:05:14.153Z,16.90
2022-09-06T01:08:13.996Z,16.80
2022-09-06T01:11:18.564Z,16.80
2022-09-06T01:14:52.106Z,16.80
2022-09-06T01:18:06.271Z,16.80
2022-09-06T01:21:28.043Z,16.80
2022-09-06T01:24:49.757Z,16.80
2022-09-06T01:28:04.330Z,16.80
2022-09-06T01:31:11.797Z,16.80
2022-09-06T01:34:06.481Z,16.80
2022-09-06T01:37:13.171Z,16.70
2022-09-06T01:39:58.591Z,16.70
2022-09-06T01:42:46.404Z,16.70
2022-09-06T01:45:57.027Z,16.60
2022-09-06T01:49:10.258Z,16.70
2022-09-06T01:52:16.772Z,16.70
2022-09-06T01:55:28.126Z,16.70
2022-09-06T01:58:22.209Z,16.70
2022-09-06T02:01:37.975Z,16.70
2022-09-06T02:04:26.781Z,16.70
2022-09-06T02:07:25.201Z,16.60
2022-09-06T02:10:18.572Z,16.60
2022-09-06T02:13:06.054Z,16.60
2022-09-06T02:16:01.061Z,16.60
2022-09-06T02:19:09.775Z,16.60
2022-09-06T02:21:58.188Z,16.50
2022-09-06T02:24:46.450Z,16.50
2022-09-06T02:27:33.199Z,16.50
2022-09-06T02:30:18.719Z,16.50
2022-09-06T02:33:09.764Z,16.50
2022-09-06T02:35:56.247Z,16.40
2022-09-06T02:38:43.577Z,16.50
2022-09-06T02:41:30.256Z,16.40
2022-09-06T02:44:15.847Z,16.50
2022-09-06T02:47:03.155Z,16.50
2022-09-06T02:49:49.208Z,16.50
2022-09-06T02:52:35.027Z,16.60
2022-09-06T02:55:20.621Z,16.60
2022-09-06T02:58:07.567Z,16.60
2022-09-06T03:00:53.504Z,16.50
2022-09-06T03:03:38.911Z,16.50
2022-09-06T03:06:25.091Z,16.60
2022-09-06T03:09:10.555Z,16.70
2022-09-06T03:11:55.943Z,16.80
2022-09-06T03:14:41.605Z,16.90
2022-09-06T03:17:27.128Z,16.90
2022-09-06T03:20:13.442Z,16.90
2022-09-06T03:22:58.734Z,17.10
2022-09-06T03:25:44.713Z,17.20
2022-09-06T03:28:30.128Z,17.10
2022-09-06T03:31:15.491Z,17.10
2022-09-06T03:34:01.081Z,17.10
2022-09-06T03:36:46.608Z,17.00
2022-09-06T03:39:32.371Z,16.90
2022-09-06T03:42:17.847Z,16.80
2022-09-06T03:45:03.613Z,16.70
2022-09-06T03:47:49.202Z,16.60
2022-09-06T03:50:34.782Z,16.60
2022-09-06T03:53:21.269Z,16.60
2022-09-06T03:56:07.096Z,16.60
2022-09-06T03:58:52.780Z,16.60
2022-09-06T04:01:37.999Z,16.60
2022-09-06T04:04:23.368Z,16.50
2022-09-06T04:07:09.250Z,16.50
2022-09-06T04:09:54.665Z,16.50
2022-09-06T04:12:40.160Z,16.50
2022-09-06T04:15:25.776Z,16.50
2022-09-06T04:18:11.399Z,16.50
2022-09-06T04:20:57.508Z,16.50
2022-09-06T04:23:43.161Z,16.50
2022-09-06T04:26:28.654Z,16.50
2022-09-06T04:29:14.188Z,16.50
2022-09-06T04:31:59.772Z,16.40
2022-09-06T04:34:45.326Z,16.40
2022-09-06T04:37:31.185Z,16.40
2022-09-06T04:40:16.499Z,16.40
2022-09-06T04:43:01.881Z,16.30
2022-09-06T04:45:47.435Z,16.30
2022-09-06T04:48:32.810Z,16.20
2022-09-06T04:51:18.903Z,16.30
2022-09-06T04:54:04.027Z,16.40
2022-09-06T04:56:49.711Z,16.30
2022-09-06T04:59:35.616Z,16.30
2022-09-06T05:02:21.034Z,16.20
2022-09-06T05:05:06.991Z,16.30
2022-09-06T05:07:53.326Z,16.30
2022-09-06T05:10:38.938Z,16.30
2022-09-06T05:13:24.472Z,16.20
2022-09-06T05:16:10.467Z,16.20
2022-09-06T05:18:55.728Z,16.20
2022-09-06T05:21:41.302Z,16.30
2022-09-06T05:24:26.850Z,16.30
2022-09-06T05:27:12.781Z,16.40
2022-09-06T05:29:58.520Z,16.40
2022-09-06T05:32:44.684Z,16.40
2022-09-06T05:35:30.050Z,16.50
2022-09-06T05:38:15.478Z,16.50
2022-09-06T05:41:00.936Z,16.60
2022-09-06T05:43:46.626Z,16.70
2022-09-06T05:46:32.099Z,16.70
2022-09-06T05:49:17.669Z,16.80
2022-09-06T05:52:03.353Z,16.90
2022-09-06T05:54:48.592Z,16.90
2022-09-06T05:57:34.239Z,16.90
2022-09-06T06:00:20.296Z,17.00
2022-09-06T06:03:05.869Z,17.10
2022-09-06T06:05:51.615Z,17.10
2022-09-06T06:08:36.878Z,17.20
2022-09-06T06:11:22.378Z,17.30
2022-09-06T06:14:08.458Z,17.20
2022-09-06T06:16:53.782Z,17.20
2022-09-06T06:19:40.180Z,17.20
2022-09-06T06:22:25.670Z,17.30
2022-09-06T06:25:12.715Z,17.30
2022-09-06T06:27:58.196Z,17.40
2022-09-06T06:30:43.680Z,17.40
2022-09-06T06:33:29.229Z,17.50
2022-09-06T06:36:14.976Z,17.50
2022-09-06T06:39:01.231Z,17.60
2022-09-06T06:41:47.899Z,17.50
2022-09-06T06:44:33.366Z,17.50
2022-09-06T06:47:19.124Z,17.60
2022-09-06T06:50:05.204Z,17.60
2022-09-06T06:52:51.133Z,17.60
2022-09-06T06:55:36.572Z,17.80
2022-09-06T06:58:22.646Z,17.80
2022-09-06T07:01:09.410Z,17.90
2022-09-06T07:03:55.390Z,18.00
2022-09-06T07:13:01.136Z,18.20
2022-09-06T07:15:46.646Z,18.40
2022-09-06T07:18:31.956Z,18.30
2022-09-06T07:24:25.191Z,18.60
2022-09-06T07:30:15.715Z,19.00
2022-09-06T07:33:01.313Z,19.10
2022-09-06T07:36:01.321Z,19.20
2022-09-06T07:38:50.750Z,19.30
2022-09-06T07:41:36.114Z,19.40
2022-09-06T07:44:21.711Z,19.40
2022-09-06T07:53:29.298Z,19.70
2022-09-06T07:56:19.387Z,19.90
2022-09-06T07:59:05.000Z,19.90
2022-09-06T08:01:50.442Z,19.90
2022-09-06T08:04:36.204Z,20.00
2022-09-06T08:10:22.336Z,20.40
2022-09-06T08:13:07.733Z,20.60
2022-09-06T08:16:03.719Z,20.70
2022-09-06T08:18:54.166Z,20.90
2022-09-06T08:21:39.899Z,21.10
2022-09-06T08:24:25.331Z,21.40
2022-09-06T08:27:11.417Z,21.60
2022-09-06T08:29:56.731Z,21.80
2022-09-06T08:32:42.908Z,22.00
2022-09-06T08:35:28.471Z,22.30
2022-09-06T08:38:13.895Z,22.50
2022-09-06T08:41:14.389Z,22.70
2022-09-06T08:47:21.664Z,23.30
2022-09-06T08:50:09.372Z,23.50
2022-09-06T08:53:17.959Z,23.60
2022-09-06T08:56:13.431Z,23.80
2022-09-06T08:59:07.214Z,24.20
2022-09-06T09:02:15.484Z,24.40
2022-09-06T09:05:04.693Z,24.70
2022-09-06T09:08:07.735Z,25.00
2022-09-06T09:11:13.362Z,25.30
2022-09-06T09:14:23.652Z,25.50
2022-09-06T09:17:27.728Z,25.70
2022-09-06T09:20:13.492Z,25.90
2022-09-06T09:22:59.310Z,26.20
2022-09-06T09:25:46.661Z,26.50
2022-09-06T09:28:32.041Z,26.90
2022-09-06T09:31:33.513Z,27.10
2022-09-06T09:34:29.709Z,27.40
2022-09-06T09:40:26.003Z,28.10
2022-09-06T09:43:31.735Z,28.30
2022-09-06T09:46:30.498Z,28.40
2022-09-06T09:49:22.110Z,28.50
2022-09-06T09:52:12.284Z,28.60
2022-09-06T09:55:05.182Z,28.60
2022-09-06T09:57:51.659Z,28.50
2022-09-06T10:00:43.428Z,28.40
2022-09-06T10:03:31.005Z,28.40
2022-09-06T10:09:36.582Z,28.40
2022-09-06T10:12:38.975Z,28.30
2022-09-06T10:15:43.928Z,28.30
2022-09-06T10:18:32.080Z,28.20
2022-09-06T10:21:22.455Z,28.20
2022-09-06T10:24:26.703Z,28.20
2022-09-06T10:27:18.372Z,28.30
2022-09-06T10:30:07.141Z,28.40
2022-09-06T10:33:06.559Z,28.40
2022-09-06T10:35:52.910Z,28.50
2022-09-06T10:38:58.401Z,28.50
2022-09-06T10:41:53.595Z,28.50
2022-09-06T10:45:03.995Z,28.70
2022-09-06T10:47:57.162Z,28.80
2022-09-06T10:50:45.573Z,28.80
2022-09-06T10:53:34.592Z,28.70
2022-09-06T10:56:29.902Z,28.60
2022-09-06T10:59:37.026Z,28.60
2022-09-06T11:02:34.539Z,28.50
2022-09-06T11:05:40.830Z,28.60
2022-09-06T11:08:57.597Z,28.80
2022-09-06T11:11:45.200Z,28.90
2022-09-06T11:14:31.059Z,29.00
2022-09-06T11:17:41.688Z,29.00
2022-09-06T11:20:32.285Z,28.70
2022-09-06T11:23:28.120Z,28.70
2022-09-06T11:26:29.005Z,28.70
2022-09-06T11:29:20.893Z,28.80
2022-09-06T11:32:36.628Z,28.80
2022-09-06T11:35:28.140Z,28.90
2022-09-06T11:38:16.447Z,28.80
2022-09-06T11:41:05.596Z,28.80
2022-09-06T11:43:53.148Z,28.90
2022-09-06T11:46:42.788Z,29.00
2022-09-06T11:49:31.869Z,29.20
2022-09-06T11:52:59.589Z,29.40
2022-09-06T11:55:48.601Z,29.80
2022-09-06T11:58:39.918Z,30.10
2022-09-06T12:01:24.947Z,30.30
2022-09-06T12:04:10.740Z,30.40
2022-09-06T12:07:22.882Z,30.50
2022-09-06T12:10:30.284Z,30.60
2022-09-06T12:13:39.908Z,30.60
2022-09-06T12:16:25.463Z,30.60
2022-09-06T12:19:44.152Z,30.80
2022-09-06T12:22:41.983Z,30.90
2022-09-06T12:25:36.707Z,31.00
2022-09-06T12:28:30.612Z,31.20
2022-09-06T12:31:30.848Z,31.20
2022-09-06T12:34:26.924Z,31.30
2022-09-06T12:37:12.148Z,31.40
2022-09-06T12:39:59.918Z,31.40
2022-09-06T12:42:48.039Z,31.40
2022-09-06T12:45:34.028Z,31.20
2022-09-06T12:48:33.664Z,31.30
2022-09-06T12:51:20.822Z,31.30
2022-09-06T12:54:26.751Z,31.10
2022-09-06T12:57:14.379Z,31.10
2022-09-06T12:59:59.827Z,31.20
2022-09-06T13:02:59.348Z,31.30
2022-09-06T13:05:45.793Z,31.10
2022-09-06T13:08:42.735Z,31.10
2022-09-06T13:11:34.487Z,31.10
2022-09-06T13:14:27.243Z,30.90
2022-09-06T13:17:27.249Z,30.80
2022-09-06T13:20:24.014Z,30.80
2022-09-06T13:23:12.393Z,30.90
2022-09-06T13:25:58.110Z,30.80
2022-09-06T13:28:43.779Z,30.70
2022-09-06T13:31:30.063Z,30.70
2022-09-06T13:34:27.804Z,30.60
2022-09-06T13:37:13.780Z,30.60
2022-09-06T13:39:59.881Z,30.80
2022-09-06T13:42:45.858Z,30.80
2022-09-06T13:45:32.855Z,31.00
2022-09-06T13:48:29.144Z,31.10
2022-09-06T13:51:15.155Z,31.30
2022-09-06T13:54:12.877Z,30.80
2022-09-06T13:56:58.222Z,30.70
2022-09-06T13:59:43.570Z,30.80
2022-09-06T14:02:29.208Z,30.90
2022-09-06T14:05:14.446Z,31.30
2022-09-06T14:08:00.061Z,31.30
2022-09-06T14:10:48.085Z,31.30
2022-09-06T14:13:33.716Z,31.00
2022-09-06T14:16:19.041Z,31.10
2022-09-06T14:19:05.486Z,31.10
2022-09-06T14:21:50.986Z,31.10
2022-09-06T14:24:36.438Z,31.10
2022-09-06T14:27:22.289Z,31.20
2022-09-06T14:30:08.772Z,31.50
2022-09-06T14:32:54.156Z,31.70
2022-09-06T14:35:40.220Z,31.80
2022-09-06T14:38:25.428Z,31.80
2022-09-06T14:41:14.003Z,31.80
2022-09-06T14:43:59.957Z,31.70
2022-09-06T14:46:45.237Z,31.70
2022-09-06T14:49:30.449Z,31.70
2022-09-06T14:52:16.384Z,31.70
2022-09-06T14:55:02.490Z,31.70
2022-09-06T14:57:47.976Z,31.70
2022-09-06T15:00:33.305Z,31.60
2022-09-06T15:03:18.549Z,31.50
2022-09-06T15:06:04.217Z,31.30
2022-09-06T15:08:50.581Z,31.30
2022-09-06T15:11:42.445Z,31.20
2022-09-06T15:14:32.057Z,31.10
2022-09-06T15:17:17.661Z,31.10
2022-09-06T15:20:03.383Z,30.70
2022-09-06T15:22:56.413Z,30.40
2022-09-06T15:25:54.601Z,30.00
2022-09-06T15:28:41.455Z,29.90
2022-09-06T15:31:27.416Z,29.60
2022-09-06T15:34:13.180Z,29.50
2022-09-06T15:36:58.490Z,29.40
2022-09-06T15:39:44.521Z,29.20
2022-09-06T15:42:29.700Z,29.00
2022-09-06T15:45:15.246Z,29.10
2022-09-06T15:48:01.181Z,29.30
2022-09-06T15:50:51.650Z,29.40
2022-09-06T15:53:38.460Z,29.70
2022-09-06T15:56:24.049Z,29.50
2022-09-06T15:59:09.881Z,29.50
2022-09-06T16:01:55.162Z,29.50
2022-09-06T16:04:41.058Z,29.50
2022-09-06T16:07:26.602Z,29.30
2022-09-06T16:10:12.939Z,29.20
2022-09-06T16:12:58.223Z,29.20
2022-09-06T16:15:43.806Z,29.30
2022-09-06T16:18:32.249Z,29.30
2022-09-06T16:21:30.380Z,29.40
2022-09-06T16:24:18.935Z,29.30
2022-09-06T16:27:04.624Z,29.30
2022-09-06T16:29:50.303Z,29.30
2022-09-06T16:32:35.977Z,29.40
2022-09-06T16:35:21.517Z,29.50
2022-09-06T16:38:09.216Z,29.50
2022-09-06T16:40:54.634Z,29.60
2022-09-06T16:43:40.645Z,29.70
2022-09-06T16:46:28.882Z,29.80
2022-09-06T16:49:17.004Z,29.60
2022-09-06T16:52:02.919Z,29.40
2022-09-06T16:54:48.626Z,29.20
2022-09-06T16:57:33.851Z,29.20
2022-09-06T17:00:19.552Z,29.20
2022-09-06T17:03:04.648Z,29.20
2022-09-06T17:05:51.452Z,29.20
2022-09-06T17:08:37.336Z,29.10
2022-09-06T17:11:23.296Z,28.90
2022-09-06T17:14:08.706Z,28.60
2022-09-06T17:17:06.918Z,28.40
2022-09-06T17:19:52.477Z,28.20
2022-09-06T17:22:37.953Z,28.00
2022-09-06T17:25:23.534Z,27.90
2022-09-06T17:28:08.978Z,27.80
2022-09-06T17:30:55.058Z,27.50
2022-09-06T17:33:40.234Z,27.20
2022-09-06T17:36:31.761Z,26.90
2022-09-06T17:39:18.964Z,26.70
2022-09-06T17:42:04.515Z,26.50
2022-09-06T17:44:50.011Z,26.30
2022-09-06T17:47:35.563Z,26.10
2022-09-06T17:50:20.949Z,25.70
2022-09-06T17:53:06.412Z,25.40
2022-09-06T17:55:52.269Z,25.20
2022-09-06T17:58:38.452Z,25.00
2022-09-06T18:01:25.896Z,25.00
2022-09-06T18:04:12.802Z,24.90
2022-09-06T18:06:58.038Z,24.80
2022-09-06T18:09:43.443Z,24.80
2022-09-06T18:12:29.710Z,24.60
2022-09-06T18:15:15.122Z,24.40
2022-09-06T18:18:00.670Z,24.30
2022-09-06T18:20:46.623Z,24.20
2022-09-06T18:23:33.019Z,24.20
2022-09-06T18:26:19.554Z,24.10
2022-09-06T18:29:08.012Z,24.00
2022-09-06T18:31:54.087Z,23.80
2022-09-06T18:34:39.592Z,23.80
2022-09-06T18:37:25.331Z,23.70
2022-09-06T18:40:11.226Z,23.60
2022-09-06T18:42:56.232Z,23.50
2022-09-06T18:45:42.657Z,23.40
2022-09-06T18:48:28.877Z,23.30
2022-09-06T18:51:16.355Z,23.20
2022-09-06T18:54:02.411Z,23.10
2022-09-06T18:56:49.880Z,23.10
2022-09-06T18:59:35.512Z,23.00
2022-09-06T19:02:23.602Z,22.90
2022-09-06T19:05:09.506Z,22.70
2022-09-06T19:07:55.002Z,22.60
2022-09-06T19:10:40.316Z,22.50
2022-09-06T19:13:25.896Z,22.40
2022-09-06T19:16:13.228Z,22.30
2022-09-06T19:19:16.944Z,22.30
2022-09-06T19:22:03.651Z,22.20
2022-09-06T19:24:49.138Z,22.10
2022-09-06T19:27:34.652Z,22.00
2022-09-06T19:30:20.291Z,22.10
2022-09-06T19:33:05.568Z,22.20
2022-09-06T19:36:10.425Z,21.90
2022-09-06T19:39:04.982Z,21.80
2022-09-06T19:41:51.344Z,21.70
2022-09-06T19:44:36.979Z,21.60
2022-09-06T19:47:22.497Z,21.50
2022-09-06T19:50:08.966Z,21.40
2022-09-06T19:52:55.166Z,21.50
2022-09-06T19:55:40.831Z,21.30
2022-09-06T19:58:26.329Z,21.20
2022-09-06T20:01:18.092Z,21.10
2022-09-06T20:04:07.051Z,21.10
2022-09-06T20:06:53.802Z,20.90
2022-09-06T20:09:40.115Z,20.90
2022-09-06T20:12:25.365Z,20.80
2022-09-06T20:15:12.143Z,20.80
2022-09-06T20:17:57.718Z,20.80
2022-09-06T20:20:44.190Z,20.80
2022-09-06T20:23:31.285Z,20.80
2022-09-06T20:26:17.995Z,20.70
2022-09-06T20:29:05.029Z,20.70
2022-09-06T20:31:50.637Z,20.50
2022-09-06T20:34:36.296Z,20.30
2022-09-06T20:37:21.728Z,20.30
2022-09-06T20:40:08.222Z,20.20
2022-09-06T20:42:53.906Z,20.10
2022-09-06T20:45:39.631Z,20.10
2022-09-06T20:48:24.778Z,20.10
2022-09-06T20:51:12.740Z,20.10
2022-09-06T20:53:59.835Z,19.90
2022-09-06T20:56:45.104Z,19.90
2022-09-06T20:59:31.056Z,19.90
2022-09-06T21:02:17.036Z,20.00
2022-09-06T21:05:04.685Z,20.00
2022-09-06T21:07:50.342Z,20.10
2022-09-06T21:10:35.627Z,20.10
2022-09-06T21:13:20.996Z,20.10
2022-09-06T21:16:07.707Z,20.10
2022-09-06T21:18:58.106Z,20.00
2022-09-06T21:21:43.540Z,20.00
2022-09-06T21:24:28.922Z,20.00
2022-09-06T21:27:14.433Z,20.00
2022-09-06T21:29:59.916Z,20.00
2022-09-06T21:32:46.372Z,19.90
2022-09-06T21:35:34.627Z,19.90
2022-09-06T21:38:19.835Z,19.80
2022-09-06T21:41:07.557Z,19.90
2022-09-06T21:44:00.487Z,19.80
2022-09-06T21:46:46.236Z,19.80
2022-09-06T21:49:31.664Z,19.80
2022-09-06T21:52:17.188Z,19.80
2022-09-06T21:55:02.777Z,19.80
2022-09-06T21:57:48.173Z,19.80
2022-09-06T22:00:34.886Z,19.70
2022-09-06T22:03:20.113Z,19.70
2022-09-06T22:06:26.715Z,19.70
2022-09-06T22:09:13.151Z,19.60
2022-09-06T22:11:58.411Z,19.50
2022-09-06T22:14:44.905Z,19.50
2022-09-06T22:17:30.348Z,19.50
2022-09-06T22:20:16.205Z,19.40
2022-09-06T22:23:06.723Z,19.40
2022-09-06T22:26:01.344Z,19.40
2022-09-06T22:28:47.396Z,19.40
2022-09-06T22:31:34.032Z,19.30
2022-09-06T22:34:19.462Z,19.20
2022-09-06T22:37:04.833Z,19.20
2022-09-06T22:39:50.721Z,19.10
2022-09-06T22:42:36.178Z,19.10
2022-09-06T22:45:21.569Z,19.10
2022-09-06T22:48:07.200Z,19.00
2022-09-06T22:50:52.756Z,19.00
2022-09-06T22:53:38.359Z,19.00
2022-09-06T22:56:24.554Z,18.90
2022-09-06T22:59:09.932Z,19.00
2022-09-06T23:01:55.611Z,19.00
2022-09-06T23:04:41.408Z,18.90
2022-09-06T23:07:26.931Z,18.90
2022-09-06T23:10:12.618Z,18.90
2022-09-06T23:12:58.677Z,19.00
2022-09-06T23:15:46.471Z,19.00
2022-09-06T23:18:31.768Z,19.00
2022-09-06T23:21:20.627Z,19.00
2022-09-06T23:24:06.527Z,19.10
2022-09-06T23:26:52.737Z,19.10
2022-09-06T23:29:41.139Z,19.10
2022-09-06T23:32:27.212Z,19.10
2022-09-06T23:35:12.942Z,19.10
2022-09-06T23:37:58.506Z,19.00
2022-09-06T23:40:44.190Z,19.00
2022-09-06T23:43:30.380Z,18.90
2022-09-06T23:46:16.095Z,19.00
2022-09-06T23:49:01.798Z,18.90
2022-09-06T23:51:47.060Z,18.90
2022-09-06T23:54:32.962Z,18.80
2022-09-06T23:57:18.219Z,18.80
